Time,TemperatureF,DewpointF,PressureIn,WindDirection,WindDirectionDegrees,WindSpeedMPH,WindSpeedGustMPH,Humidity,HourlyPrecipIn,Conditions,Clouds,dailyrainin,SolarRadiationWatts/m^2,SoftwareType,DateUTC
2013-01-21 00:02:00,14.0,11.0,-100.00,NNW,332,0.0,0.0,87,0.00,,,0.00,0.000000,,2013-01-21 07:02:00,
2013-01-21 00:33:00,13.0,8.0,-100.00,NW,304,0.0,0.0,79,0.00,,,-99.99,0.000000,,2013-01-21 07:33:00,
2013-01-21 00:42:00,13.0,8.0,-100.00,NW,304,0.0,0.0,79,0.00,,,-99.99,0.000000,,2013-01-21 07:42:00,
2013-01-21 00:53:00,13.0,8.0,-100.00,NW,304,0.0,0.0,79,0.00,,,-99.99,0.000000,,2013-01-21 07:53:00,
2013-01-21 01:02:00,13.0,8.0,-100.00,NW,304,0.0,0.0,79,0.00,,,-99.99,0.000000,,2013-01-21 08:02:00,
2013-01-21 01:33:00,14.0,9.0,-100.00,NW,309,0.0,0.0,79,0.00,,,0.00,0.000000,,2013-01-21 08:33:00,
2013-01-21 02:02:00,14.0,9.0,-100.00,NW,309,0.0,0.0,79,0.00,,,0.00,0.000000,,2013-01-21 09:02:00,
2013-01-21 02:33:00,12.0,7.0,-100.00,North,10,0.0,0.0,80,0.00,,,0.00,0.000000,,2013-01-21 09:33:00,
2013-01-21 02:43:00,12.0,7.0,-100.00,North,10,0.0,0.0,80,0.00,,,0.00,0.000000,,2013-01-21 09:43:00,
2013-01-21 02:53:00,12.0,7.0,-100.00,North,10,0.0,0.0,80,0.00,,,0.00,0.000000,,2013-01-21 09:53:00,
2013-01-21 03:02:00,12.0,7.0,-100.00,North,10,0.0,0.0,80,0.00,,,0.00,0.000000,,2013-01-21 10:02:00,
2013-01-21 03:33:00,11.0,7.0,-100.00,NNW,327,0.0,0.0,83,0.00,,,0.00,0.000000,,2013-01-21 10:33:00,
2013-01-21 03:43:00,11.0,7.0,-100.00,NNW,327,0.0,0.0,83,0.00,,,0.00,0.000000,,2013-01-21 10:43:00,
2013-01-21 03:52:00,11.0,7.0,-100.00,NNW,327,0.0,0.0,83,0.00,,,0.00,0.000000,,2013-01-21 10:52:00,
2013-01-21 04:02:00,11.0,7.0,-100.00,NNW,327,0.0,0.0,83,0.00,,,0.00,0.000000,,2013-01-21 11:02:00,
2013-01-21 04:33:00,11.0,7.0,-100.00,West,260,0.0,0.0,83,0.00,,,0.00,0.000000,,2013-01-21 11:33:00,
2013-01-21 04:43:00,11.0,7.0,-100.00,West,260,0.0,0.0,83,0.00,,,0.00,0.000000,,2013-01-21 11:43:00,
2013-01-21 04:53:00,11.0,7.0,-100.00,West,260,0.0,0.0,83,0.00,,,0.00,0.000000,,2013-01-21 11:53:00,
2013-01-21 05:02:00,11.0,7.0,-100.00,West,260,0.0,0.0,83,0.00,,,0.00,0.000000,,2013-01-21 12:02:00,
2013-01-21 05:33:00,10.0,6.0,-100.00,NW,321,0.0,0.0,83,0.00,,,0.00,0.000000,,2013-01-21 12:33:00,
2013-01-21 05:43:00,10.0,6.0,-100.00,NW,321,0.0,0.0,83,0.00,,,0.00,0.000000,,2013-01-21 12:43:00,
2013-01-21 05:53:00,10.0,6.0,-100.00,NW,321,0.0,0.0,83,0.00,,,0.00,0.000000,,2013-01-21 12:53:00,
2013-01-21 06:02:00,10.0,6.0,-100.00,NW,321,0.0,0.0,83,0.00,,,0.00,0.000000,,2013-01-21 13:02:00,
2013-01-21 06:33:00,8.0,4.0,-100.00,NNW,344,0.0,0.0,85,0.00,,,0.00,0.000000,,2013-01-21 13:33:00,
2013-01-21 06:43:00,8.0,4.0,-100.00,NNW,344,0.0,0.0,85,0.00,,,0.00,0.000000,,2013-01-21 13:43:00,
2013-01-21 06:53:00,8.0,4.0,-100.00,NNW,344,0.0,0.0,85,0.00,,,0.00,0.000000,,2013-01-21 13:53:00,
2013-01-21 07:03:00,8.0,4.0,-100.00,NNW,344,0.0,0.0,85,0.00,,,0.00,0.000000,,2013-01-21 14:03:00,
2013-01-21 07:33:00,9.0,5.0,-100.00,NNE,33,0.0,0.0,84,0.00,,,0.00,0.000000,,2013-01-21 14:33:00,
2013-01-21 07:43:00,9.0,5.0,-100.00,NNE,33,0.0,0.0,84,0.00,,,0.00,0.000000,,2013-01-21 14:43:00,
2013-01-21 07:53:00,9.0,5.0,-100.00,NNE,33,0.0,0.0,84,0.00,,,0.00,0.000000,,2013-01-21 14:53:00,
2013-01-21 08:03:00,9.0,5.0,-100.00,NNE,33,0.0,0.0,84,0.00,,,0.00,0.000000,,2013-01-21 15:03:00,
2013-01-21 08:33:00,16.0,11.0,-100.00,NE,41,0.0,0.0,79,0.00,,,0.00,23.000000,,2013-01-21 15:33:00,
2013-01-21 08:43:00,16.0,11.0,-100.00,NE,41,0.0,0.0,79,0.00,,,0.00,23.000000,,2013-01-21 15:43:00,
2013-01-21 08:53:00,16.0,11.0,-100.00,NE,41,0.0,0.0,79,0.00,,,0.00,23.000000,,2013-01-21 15:53:00,
2013-01-21 09:03:00,16.0,11.0,-100.00,NE,41,0.0,0.0,79,0.00,,,0.00,23.000000,,2013-01-21 16:03:00,
2013-01-21 09:33:00,30.0,13.0,-100.00,ENE,78,6.0,9.0,49,0.00,,,-99.99,207.000000,,2013-01-21 16:33:00,
2013-01-21 09:43:00,30.0,13.0,-100.00,ENE,78,6.0,9.0,49,0.00,,,-99.99,207.000000,,2013-01-21 16:43:00,
2013-01-21 09:53:00,30.0,13.0,-100.00,ENE,78,6.0,9.0,49,0.00,,,-99.99,207.000000,,2013-01-21 16:53:00,
2013-01-21 10:02:00,30.0,13.0,-100.00,ENE,78,6.0,9.0,49,0.00,,,-99.99,207.000000,,2013-01-21 17:02:00,
2013-01-21 10:33:00,39.0,6.0,-100.00,East,85,6.0,13.0,25,0.00,,,0.00,370.000000,,2013-01-21 17:33:00,
2013-01-21 10:43:00,39.0,6.0,-100.00,East,85,6.0,13.0,25,0.00,,,0.00,370.000000,,2013-01-21 17:43:00,
2013-01-21 10:53:00,39.0,6.0,-100.00,East,85,6.0,13.0,25,0.00,,,0.00,370.000000,,2013-01-21 17:53:00,
2013-01-21 11:02:00,39.0,6.0,-100.00,East,85,6.0,13.0,25,0.00,,,0.00,370.000000,,2013-01-21 18:02:00,
2013-01-21 11:33:00,43.0,4.0,-100.00,ENE,78,8.0,15.0,19,0.00,,,0.00,509.000000,,2013-01-21 18:33:00,
2013-01-21 11:43:00,43.0,4.0,-100.00,ENE,78,8.0,15.0,19,0.00,,,0.00,509.000000,,2013-01-21 18:43:00,
2013-01-21 11:53:00,43.0,4.0,-100.00,ENE,78,8.0,15.0,19,0.00,,,0.00,509.000000,,2013-01-21 18:53:00,
2013-01-21 12:02:00,43.0,4.0,-100.00,ENE,78,8.0,15.0,19,0.00,,,0.00,509.000000,,2013-01-21 19:02:00,
2013-01-21 12:33:00,44.0,4.0,-100.00,ENE,76,9.0,15.0,19,0.00,,,0.00,595.000000,,2013-01-21 19:33:00,
2013-01-21 12:43:00,44.0,4.0,-100.00,ENE,76,9.0,15.0,19,0.00,,,0.00,595.000000,,2013-01-21 19:43:00,
2013-01-21 12:53:00,44.0,4.0,-100.00,ENE,76,9.0,15.0,19,0.00,,,0.00,595.000000,,2013-01-21 19:53:00,
2013-01-21 13:02:00,44.0,4.0,-100.00,ENE,76,9.0,15.0,19,0.00,,,0.00,595.000000,,2013-01-21 20:02:00,
2013-01-21 14:33:00,47.0,8.0,-100.00,ENE,58,10.0,19.0,20,-99.99,,,0.00,583.000000,,2013-01-21 21:33:00,
2013-01-21 14:43:00,47.0,8.0,-100.00,ENE,58,10.0,19.0,20,-99.99,,,0.00,583.000000,,2013-01-21 21:43:00,
2013-01-21 14:53:00,47.0,8.0,-100.00,ENE,58,10.0,19.0,20,-99.99,,,0.00,583.000000,,2013-01-21 21:53:00,
2013-01-21 15:02:00,47.0,8.0,-100.00,ENE,58,10.0,19.0,20,-99.99,,,0.00,583.000000,,2013-01-21 22:02:00,
2013-01-21 15:33:00,47.0,8.0,-100.00,ENE,74,10.0,17.0,20,0.00,,,0.00,487.000000,,2013-01-21 22:33:00,
2013-01-21 15:43:00,47.0,8.0,-100.00,ENE,74,10.0,17.0,20,0.00,,,0.00,487.000000,,2013-01-21 22:43:00,
2013-01-21 15:53:00,47.0,8.0,-100.00,ENE,74,10.0,17.0,20,0.00,,,0.00,487.000000,,2013-01-21 22:53:00,
2013-01-21 16:02:00,47.0,8.0,-100.00,ENE,74,10.0,17.0,20,0.00,,,0.00,487.000000,,2013-01-21 23:02:00,
2013-01-21 16:33:00,46.0,9.0,-100.00,ENE,78,9.0,16.0,22,0.00,,,0.00,340.000000,,2013-01-21 23:33:00,
2013-01-21 16:43:00,46.0,9.0,-100.00,ENE,78,9.0,16.0,22,0.00,,,0.00,340.000000,,2013-01-21 23:43:00,
2013-01-21 16:53:00,46.0,9.0,-100.00,ENE,78,9.0,16.0,22,0.00,,,0.00,340.000000,,2013-01-21 23:53:00,
2013-01-21 17:02:00,46.0,9.0,-100.00,ENE,78,9.0,16.0,22,0.00,,,0.00,340.000000,,2013-01-22 00:02:00,
2013-01-21 17:33:00,42.0,8.0,-100.00,ENE,72,8.0,13.0,24,0.00,,,0.00,164.000000,,2013-01-22 00:33:00,
2013-01-21 17:43:00,42.0,8.0,-100.00,ENE,72,8.0,13.0,24,0.00,,,0.00,164.000000,,2013-01-22 00:43:00,
2013-01-21 17:53:00,42.0,8.0,-100.00,ENE,72,8.0,13.0,24,0.00,,,0.00,164.000000,,2013-01-22 00:53:00,
2013-01-21 18:02:00,42.0,8.0,-100.00,ENE,72,8.0,13.0,24,0.00,,,0.00,164.000000,,2013-01-22 01:02:00,
2013-01-21 19:33:00,25.0,9.0,-100.00,WNW,302,0.0,0.0,50,-99.99,,,0.00,0.000000,,2013-01-22 02:33:00,
2013-01-21 19:43:00,25.0,9.0,-100.00,WNW,302,0.0,0.0,50,-99.99,,,0.00,0.000000,,2013-01-22 02:43:00,
2013-01-21 19:53:00,25.0,9.0,-100.00,WNW,302,0.0,0.0,50,-99.99,,,0.00,0.000000,,2013-01-22 02:53:00,
2013-01-21 20:02:00,25.0,9.0,-100.00,WNW,302,0.0,0.0,50,-99.99,,,0.00,0.000000,,2013-01-22 03:02:00,
2013-01-21 20:33:00,22.0,11.0,-100.00,West,280,0.0,0.0,63,0.00,,,0.00,0.000000,,2013-01-22 03:33:00,
2013-01-21 20:42:00,22.0,11.0,-100.00,West,280,0.0,0.0,63,0.00,,,0.00,0.000000,,2013-01-22 03:42:00,
2013-01-21 20:52:00,22.0,11.0,-100.00,West,280,0.0,0.0,63,0.00,,,0.00,0.000000,,2013-01-22 03:52:00,
2013-01-21 21:02:00,22.0,11.0,-100.00,West,280,0.0,0.0,63,0.00,,,0.00,0.000000,,2013-01-22 04:02:00,
2013-01-21 21:33:00,19.0,10.0,-100.00,NE,39,0.0,0.0,68,0.00,,,0.00,0.000000,,2013-01-22 04:33:00,
2013-01-21 21:42:00,19.0,10.0,-100.00,NE,39,0.0,0.0,68,0.00,,,0.00,0.000000,,2013-01-22 04:42:00,
2013-01-21 21:52:00,19.0,10.0,-100.00,NE,39,0.0,0.0,68,0.00,,,0.00,0.000000,,2013-01-22 04:52:00,
2013-01-21 22:03:00,19.0,10.0,-100.00,NE,39,0.0,0.0,68,0.00,,,0.00,0.000000,,2013-01-22 05:03:00,
2013-01-21 22:33:00,17.0,9.0,-100.00,North,0,0.0,0.0,71,0.00,,,-99.99,0.000000,,2013-01-22 05:33:00,
2013-01-21 22:43:00,17.0,9.0,-100.00,North,0,0.0,0.0,71,0.00,,,-99.99,0.000000,,2013-01-22 05:43:00,
2013-01-21 22:53:00,17.0,9.0,-100.00,North,0,0.0,0.0,71,0.00,,,-99.99,0.000000,,2013-01-22 05:53:00,
2013-01-21 23:02:00,17.0,9.0,-100.00,North,0,0.0,0.0,71,0.00,,,-99.99,0.000000,,2013-01-22 06:02:00,
2013-01-21 23:33:00,14.0,7.0,-100.00,North,8,0.0,0.0,72,0.00,,,0.00,0.000000,,2013-01-22 06:33:00,
2013-01-21 23:43:00,14.0,7.0,-100.00,North,8,0.0,0.0,72,0.00,,,0.00,0.000000,,2013-01-22 06:43:00,
2013-01-21 23:52:00,14.0,7.0,-100.00,North,8,0.0,0.0,72,0.00,,,0.00,0.000000,,2013-01-22 06:52:00,